createdAt,value
2018-06-27T00:00:38.908Z,1000.59
2018-06-27T00:01:39.001Z,1000.57
2018-06-27T00:02:39.101Z,1000.57
2018-06-27T00:03:39.199Z,1000.54
2018-06-27T00:04:39.295Z,1000.61
2018-06-27T00:05:39.390Z,1000.60
2018-06-27T00:06:39.487Z,1000.64
2018-06-27T00:07:39.586Z,1000.59
2018-06-27T00:08:39.682Z,1000.59
2018-06-27T00:09:39.781Z,1000.64
2018-06-27T00:10:39.869Z,1000.60
2018-06-27T00:11:39.970Z,1000.59
2018-06-27T00:12:40.062Z,1000.59
2018-06-27T00:13:40.159Z,1000.56
2018-06-27T00:14:40.256Z,1000.57
2018-06-27T00:15:40.350Z,1000.58
2018-06-27T00:16:40.457Z,1000.55
2018-06-27T00:17:40.555Z,1000.59
2018-06-27T00:18:40.650Z,1000.55
2018-06-27T00:19:40.749Z,1000.56
2018-06-27T00:20:40.843Z,1000.50
2018-06-27T00:21:40.943Z,1000.54
2018-06-27T00:22:41.042Z,1000.51
2018-06-27T00:23:41.162Z,1000.52
2018-06-27T00:24:41.259Z,1000.50
2018-06-27T00:25:41.356Z,1000.54
2018-06-27T00:26:41.454Z,1000.54
2018-06-27T00:27:41.554Z,1000.56
2018-06-27T00:28:41.652Z,1000.52
2018-06-27T00:29:41.755Z,1000.50
2018-06-27T00:30:41.848Z,1000.44
2018-06-27T00:31:41.944Z,1000.51
2018-06-27T00:32:42.043Z,1000.48
2018-06-27T00:33:42.139Z,1000.49
2018-06-27T00:34:42.236Z,1000.50
2018-06-27T00:35:42.336Z,1000.48
2018-06-27T00:36:42.431Z,1000.46
2018-06-27T00:37:42.532Z,1000.45
2018-06-27T00:38:42.626Z,1000.47
2018-06-27T00:39:42.724Z,1000.45
2018-06-27T00:40:42.821Z,1000.38
2018-06-27T00:41:42.919Z,1000.43
2018-06-27T00:42:43.029Z,1000.46
2018-06-27T00:43:43.125Z,1000.42
2018-06-27T00:44:43.219Z,1000.44
2018-06-27T00:45:43.319Z,1000.39
2018-06-27T00:46:43.413Z,1000.40
2018-06-27T00:47:43.509Z,1000.43
2018-06-27T00:48:43.607Z,1000.45
2018-06-27T00:49:43.704Z,1000.44
2018-06-27T00:50:43.808Z,1000.45
2018-06-27T00:51:43.905Z,1000.44
2018-06-27T00:52:44.001Z,1000.45
2018-06-27T00:53:44.097Z,1000.40
2018-06-27T00:54:44.194Z,1000.40
2018-06-27T00:55:44.292Z,1000.40
2018-06-27T00:56:44.392Z,1000.35
2018-06-27T00:57:44.486Z,1000.36
2018-06-27T00:58:44.582Z,1000.36
2018-06-27T00:59:44.680Z,1000.31
2018-06-27T01:00:44.789Z,1000.37
2018-06-27T01:01:44.875Z,1000.28
2018-06-27T01:02:44.973Z,1000.31
2018-06-27T01:03:45.070Z,1000.32
2018-06-27T01:04:45.161Z,1000.29
2018-06-27T01:05:45.254Z,1000.30
2018-06-27T01:06:45.353Z,1000.27
2018-06-27T01:07:45.450Z,1000.30
2018-06-27T01:08:45.548Z,1000.30
2018-06-27T01:09:45.645Z,1000.23
2018-06-27T01:10:45.742Z,1000.27
2018-06-27T01:11:45.837Z,1000.23
2018-06-27T01:12:45.937Z,1000.22
2018-06-27T01:13:46.032Z,1000.26
2018-06-27T01:14:46.129Z,1000.22
2018-06-27T01:15:46.229Z,1000.22
2018-06-27T01:16:46.325Z,1000.23
2018-06-27T01:17:46.420Z,1000.23
2018-06-27T01:18:46.515Z,1000.27
2018-06-27T01:19:46.613Z,1000.25
2018-06-27T01:20:46.711Z,1000.22
2018-06-27T01:21:46.808Z,1000.24
2018-06-27T01:22:46.902Z,1000.21
2018-06-27T01:23:46.998Z,1000.23
2018-06-27T01:24:47.096Z,1000.20
2018-06-27T01:25:47.189Z,1000.19
2018-06-27T01:26:47.287Z,1000.20
2018-06-27T01:27:47.384Z,1000.24
2018-06-27T01:28:47.480Z,1000.23
2018-06-27T01:29:47.582Z,1000.21
2018-06-27T01:30:47.678Z,1000.25
2018-06-27T01:31:47.776Z,1000.20
2018-06-27T01:32:47.875Z,1000.17
2018-06-27T01:33:47.973Z,1000.21
2018-06-27T01:34:48.054Z,1000.20
2018-06-27T01:35:48.159Z,1000.21
2018-06-27T01:36:48.241Z,1000.14
2018-06-27T01:37:48.440Z,1000.14
2018-06-27T01:38:48.410Z,1000.19
2018-06-27T01:39:48.524Z,1000.16
2018-06-27T01:40:48.616Z,1000.16
2018-06-27T01:41:48.703Z,1000.17
2018-06-27T01:42:48.785Z,1000.20
2018-06-27T01:43:48.873Z,1000.18
2018-06-27T01:44:48.978Z,1000.20
2018-06-27T01:45:49.065Z,1000.18
2018-06-27T01:46:49.186Z,1000.16
2018-06-27T01:47:49.237Z,1000.18
2018-06-27T01:48:49.324Z,1000.16
2018-06-27T01:49:49.528Z,1000.17
2018-06-27T01:50:49.520Z,1000.17
2018-06-27T01:51:49.606Z,1000.24
2018-06-27T01:52:49.700Z,1000.20
2018-06-27T01:53:49.789Z,1000.25
2018-06-27T01:54:49.871Z,1000.27
2018-06-27T01:55:49.958Z,1000.27
2018-06-27T01:56:50.047Z,1000.31
2018-06-27T01:57:50.176Z,1000.29
2018-06-27T01:58:50.303Z,1000.27
2018-06-27T01:59:50.384Z,1000.25
2018-06-27T02:00:50.478Z,1000.26
2018-06-27T02:01:50.591Z,1000.24
2018-06-27T02:02:50.691Z,1000.24
2018-06-27T02:03:50.788Z,1000.29
2018-06-27T02:04:50.883Z,1000.29
2018-06-27T02:05:50.984Z,1000.29
2018-06-27T02:06:51.101Z,1000.30
2018-06-27T02:07:51.193Z,1000.29
2018-06-27T02:08:51.281Z,1000.29
2018-06-27T02:09:51.399Z,1000.29
2018-06-27T02:10:51.491Z,1000.33
2018-06-27T02:11:51.591Z,1000.33
2018-06-27T02:12:51.675Z,1000.35
2018-06-27T02:13:51.763Z,1000.34
2018-06-27T02:14:51.853Z,1000.34
2018-06-27T02:15:51.955Z,1000.36
2018-06-27T02:16:52.053Z,1000.37
2018-06-27T02:17:52.144Z,1000.34
2018-06-27T02:18:52.242Z,1000.38
2018-06-27T02:19:52.332Z,1000.34
2018-06-27T02:20:52.426Z,1000.37
2018-06-27T02:21:52.518Z,1000.36
2018-06-27T02:22:52.620Z,1000.31
2018-06-27T02:23:52.699Z,1000.38
2018-06-27T02:24:52.829Z,1000.33
2018-06-27T02:25:52.901Z,1000.33
2018-06-27T02:26:53.007Z,1000.35
2018-06-27T02:27:53.115Z,1000.33
2018-06-27T02:28:53.200Z,1000.36
2018-06-27T02:29:53.317Z,1000.32
2018-06-27T02:30:53.405Z,1000.36
2018-06-27T02:31:53.507Z,1000.34
2018-06-27T02:32:53.620Z,1000.36
2018-06-27T02:33:53.721Z,1000.35
2018-06-27T02:34:53.822Z,1000.35
2018-06-27T02:35:53.916Z,1000.35
2018-06-27T02:36:54.001Z,1000.35
2018-06-27T02:37:54.112Z,1000.34
2018-06-27T02:38:54.206Z,1000.36
2018-06-27T02:39:54.310Z,1000.38
2018-06-27T02:40:54.409Z,1000.42
2018-06-27T02:41:54.501Z,1000.38
2018-06-27T02:42:54.595Z,1000.38
2018-06-27T02:43:54.700Z,1000.39
2018-06-27T02:44:54.785Z,1000.41
2018-06-27T02:45:54.880Z,1000.45
2018-06-27T02:46:54.972Z,1000.41
2018-06-27T02:47:55.081Z,1000.45
2018-06-27T02:48:55.180Z,1000.45
2018-06-27T02:49:55.428Z,1000.44
2018-06-27T02:50:55.373Z,1000.44
2018-06-27T02:51:55.472Z,1000.44
2018-06-27T02:52:55.565Z,1000.53
2018-06-27T02:53:55.653Z,1000.53
2018-06-27T02:54:55.748Z,1000.51
2018-06-27T02:55:55.845Z,1000.51
2018-06-27T02:56:55.951Z,1000.51
2018-06-27T02:57:56.058Z,1000.51
2018-06-27T02:58:56.141Z,1000.51
2018-06-27T02:59:56.243Z,1000.49
2018-06-27T03:00:56.335Z,1000.51
2018-06-27T03:01:56.422Z,1000.49
2018-06-27T03:02:56.517Z,1000.51
2018-06-27T03:03:56.634Z,1000.51
2018-06-27T03:04:56.733Z,1000.53
2018-06-27T03:05:56.831Z,1000.52
2018-06-27T03:06:56.925Z,1000.51
2018-06-27T03:07:57.027Z,1000.55
2018-06-27T03:08:57.132Z,1000.55
2018-06-27T03:09:57.219Z,1000.55
2018-06-27T03:10:57.336Z,1000.54
2018-06-27T03:11:57.428Z,1000.56
2018-06-27T03:12:57.521Z,1000.55
2018-06-27T03:13:57.617Z,1000.56
2018-06-27T03:14:57.721Z,1000.57
2018-06-27T03:15:57.816Z,1000.54
2018-06-27T03:16:57.904Z,1000.55
2018-06-27T03:17:58.010Z,1000.52
2018-06-27T03:18:58.135Z,1000.53
2018-06-27T03:19:58.233Z,1000.53
2018-06-27T03:20:58.330Z,1000.55
2018-06-27T03:21:58.415Z,1000.54
2018-06-27T03:22:58.566Z,1000.52
2018-06-27T03:23:58.551Z,1000.51
2018-06-27T03:24:58.650Z,1000.58
2018-06-27T03:25:58.758Z,1000.55
2018-06-27T03:26:58.854Z,1000.60
2018-06-27T03:27:58.959Z,1000.59
2018-06-27T03:28:59.052Z,1000.59
2018-06-27T03:29:59.142Z,1000.59
2018-06-27T03:30:59.263Z,1000.62
2018-06-27T03:31:59.353Z,1000.59
2018-06-27T03:32:59.452Z,1000.63
2018-06-27T03:33:59.547Z,1000.59
2018-06-27T03:34:59.659Z,1000.60
2018-06-27T03:35:59.750Z,1000.65
2018-06-27T03:36:59.847Z,1000.66
2018-06-27T03:37:59.984Z,1000.64
2018-06-27T03:39:00.076Z,1000.64
2018-06-27T03:40:00.169Z,1000.60
2018-06-27T03:41:00.269Z,1000.57
2018-06-27T03:42:00.368Z,1000.57
2018-06-27T03:43:00.459Z,1000.60
2018-06-27T03:44:00.549Z,1000.59
2018-06-27T03:45:00.632Z,1000.62
2018-06-27T03:46:00.736Z,1000.61
2018-06-27T03:47:00.841Z,1000.60
2018-06-27T03:48:00.931Z,1000.64
2018-06-27T03:49:01.029Z,1000.60
2018-06-27T03:50:01.145Z,1000.63
2018-06-27T03:51:01.238Z,1000.62
2018-06-27T03:52:01.334Z,1000.67
2018-06-27T03:53:01.427Z,1000.63
2018-06-27T03:54:01.521Z,1000.68
2018-06-27T03:55:01.618Z,1000.71
2018-06-27T03:56:01.706Z,1000.71
2018-06-27T03:57:01.815Z,1000.67
2018-06-27T03:58:01.912Z,1000.68
2018-06-27T03:59:02.043Z,1000.71
2018-06-27T04:00:02.108Z,1000.69
2018-06-27T04:01:02.215Z,1000.70
2018-06-27T04:02:02.308Z,1000.67
2018-06-27T04:03:02.399Z,1000.74
2018-06-27T04:04:02.490Z,1000.68
2018-06-27T04:05:02.580Z,1000.65
2018-06-27T04:06:02.662Z,1000.69
2018-06-27T04:07:02.758Z,1000.68
2018-06-27T04:08:02.852Z,1000.64
2018-06-27T04:09:02.948Z,1000.62
2018-06-27T04:10:03.051Z,1000.64
2018-06-27T04:11:03.145Z,1000.62
2018-06-27T04:12:03.252Z,1000.61
2018-06-27T04:13:03.570Z,1000.68
2018-06-27T04:14:03.423Z,1000.64
2018-06-27T04:15:03.527Z,1000.60
2018-06-27T04:16:03.627Z,1000.61
2018-06-27T04:17:03.725Z,1000.61
2018-06-27T04:18:03.824Z,1000.67
2018-06-27T04:19:03.922Z,1000.67
2018-06-27T04:20:04.055Z,1000.56
2018-06-27T04:21:04.115Z,1000.73
2018-06-27T04:22:04.209Z,1000.70
2018-06-27T04:23:04.308Z,1000.66
2018-06-27T04:24:04.405Z,1000.75
2018-06-27T04:25:04.506Z,1000.68
2018-06-27T04:26:04.605Z,1000.68
2018-06-27T04:27:04.701Z,1000.69
2018-06-27T04:28:04.798Z,1000.72
2018-06-27T04:29:04.896Z,1000.66
2018-06-27T04:30:04.991Z,1000.65
2018-06-27T04:31:05.086Z,1000.65
2018-06-27T04:32:05.183Z,1000.64
2018-06-27T04:33:05.282Z,1000.64
2018-06-27T04:34:05.402Z,1000.64
2018-06-27T04:35:05.501Z,1000.64
2018-06-27T04:36:05.649Z,1000.63
2018-06-27T04:37:05.700Z,1000.67
2018-06-27T04:38:05.801Z,1000.68
2018-06-27T04:39:05.895Z,1000.67
2018-06-27T04:40:05.992Z,1000.69
2018-06-27T04:41:06.085Z,1000.68
2018-06-27T04:42:06.186Z,1000.65
2018-06-27T04:43:06.291Z,1000.67
2018-06-27T04:44:06.383Z,1000.70
2018-06-27T04:45:06.482Z,1000.74
2018-06-27T04:46:06.579Z,1000.68
2018-06-27T04:47:06.677Z,1000.74
2018-06-27T04:48:06.781Z,1000.73
2018-06-27T04:49:06.878Z,1000.69
2018-06-27T04:50:06.974Z,1000.70
2018-06-27T04:51:07.071Z,1000.71
2018-06-27T04:52:07.170Z,1000.72
2018-06-27T04:53:07.268Z,1000.73
2018-06-27T04:54:07.367Z,1000.76
2018-06-27T04:55:07.460Z,1000.77
2018-06-27T04:56:07.556Z,1000.73
2018-06-27T04:57:07.655Z,1000.77
2018-06-27T04:58:07.753Z,1000.74
2018-06-27T04:59:07.851Z,1000.79
2018-06-27T05:00:07.949Z,1000.77
2018-06-27T05:01:08.048Z,1000.80
2018-06-27T05:02:08.146Z,1000.77
2018-06-27T05:03:08.244Z,1000.78
2018-06-27T05:04:08.342Z,1000.78
2018-06-27T05:05:08.442Z,1000.77
2018-06-27T05:06:08.541Z,1000.74
2018-06-27T05:07:08.639Z,1000.77
2018-06-27T05:08:08.753Z,1000.76
2018-06-27T05:09:08.851Z,1000.77
2018-06-27T05:10:08.948Z,1000.74
2018-06-27T05:11:09.047Z,1000.73
2018-06-27T05:12:09.147Z,1000.72
2018-06-27T05:13:09.245Z,1000.75
2018-06-27T05:14:09.344Z,1000.75
2018-06-27T05:15:09.452Z,1000.75
2018-06-27T05:16:09.552Z,1000.79
2018-06-27T05:17:09.650Z,1000.76
2018-06-27T05:18:09.750Z,1000.72
2018-06-27T05:19:09.853Z,1000.74
2018-06-27T05:20:09.946Z,1000.70
2018-06-27T05:21:10.042Z,1000.75
2018-06-27T05:22:10.142Z,1000.72
2018-06-27T05:23:10.240Z,1000.74
2018-06-27T05:24:10.341Z,1000.76
2018-06-27T05:25:10.440Z,1000.80
2018-06-27T05:26:10.545Z,1000.93
2018-06-27T05:27:10.645Z,1000.93
2018-06-27T05:28:10.740Z,1000.93
2018-06-27T05:29:10.828Z,1000.88
2018-06-27T05:30:10.942Z,1000.91
2018-06-27T05:31:11.042Z,1000.90
2018-06-27T05:32:11.141Z,1000.97
2018-06-27T05:33:11.254Z,1000.95
2018-06-27T05:34:11.353Z,1000.97
2018-06-27T05:35:11.453Z,1000.96
2018-06-27T05:36:11.554Z,1001.00
2018-06-27T05:37:11.653Z,1000.97
2018-06-27T05:38:11.756Z,1000.98
2018-06-27T05:39:11.854Z,1001.02
2018-06-27T05:40:11.961Z,1001.00
2018-06-27T05:41:12.053Z,1001.02
2018-06-27T05:42:12.164Z,1001.05
2018-06-27T05:43:12.257Z,1001.06
2018-06-27T05:44:12.403Z,1001.12
2018-06-27T05:45:12.476Z,1001.10
2018-06-27T05:46:12.581Z,1001.10
2018-06-27T05:47:12.687Z,1001.09
2018-06-27T05:48:12.793Z,1001.15
2018-06-27T05:49:12.901Z,1001.17
2018-06-27T05:50:13.028Z,1001.15
2018-06-27T05:51:13.134Z,1001.21
2018-06-27T05:52:13.241Z,1001.23
2018-06-27T05:53:13.343Z,1001.21
2018-06-27T05:54:13.449Z,1001.24
2018-06-27T05:55:13.554Z,1001.24
2018-06-27T05:56:13.661Z,1001.16
2018-06-27T05:57:13.771Z,1001.21
2018-06-27T05:58:13.883Z,1001.19
2018-06-27T05:59:13.984Z,1001.19
2018-06-27T06:00:14.100Z,1001.21
2018-06-27T06:01:14.209Z,1001.19
2018-06-27T06:02:14.335Z,1001.24
2018-06-27T06:03:14.443Z,1001.24
2018-06-27T06:04:14.612Z,1001.20
2018-06-27T06:05:14.663Z,1001.21
2018-06-27T06:06:14.771Z,1001.22
2018-06-27T06:07:14.879Z,1001.25
2018-06-27T06:08:14.990Z,1001.26
2018-06-27T06:09:15.099Z,1001.29
2018-06-27T06:10:15.209Z,1001.31
2018-06-27T06:11:15.350Z,1001.32
2018-06-27T06:12:15.417Z,1001.34
2018-06-27T06:13:15.535Z,1001.35
2018-06-27T06:14:15.646Z,1001.38
2018-06-27T06:15:15.753Z,1001.36
2018-06-27T06:16:15.863Z,1001.35
2018-06-27T06:17:15.972Z,1001.31
2018-06-27T06:18:16.081Z,1001.33
2018-06-27T06:19:16.190Z,1001.33
2018-06-27T06:20:16.305Z,1001.33
2018-06-27T06:21:16.414Z,1001.31
2018-06-27T06:22:16.524Z,1001.28
2018-06-27T06:23:16.634Z,1001.22
2018-06-27T06:24:16.746Z,1001.20
2018-06-27T06:25:16.873Z,1001.12
2018-06-27T06:26:16.956Z,1001.09
2018-06-27T06:27:17.064Z,1001.02
2018-06-27T06:28:17.197Z,1000.98
2018-06-27T06:29:17.307Z,1000.90
2018-06-27T06:30:17.419Z,1000.90
2018-06-27T06:31:17.541Z,1000.90
2018-06-27T06:32:17.725Z,1000.92
2018-06-27T06:33:17.756Z,1000.96
2018-06-27T06:34:17.857Z,1000.95
2018-06-27T06:35:17.961Z,1000.93
2018-06-27T06:36:18.098Z,1000.94
2018-06-27T06:37:18.205Z,1000.95
2018-06-27T06:38:19.231Z,1000.92
2018-06-27T06:39:18.463Z,1000.91
2018-06-27T06:40:18.577Z,1000.92
2018-06-27T06:41:18.695Z,1000.90
2018-06-27T06:42:18.797Z,1000.92
2018-06-27T06:43:18.897Z,1000.92
2018-06-27T06:44:19.013Z,1000.93
2018-06-27T06:45:19.115Z,1000.89
2018-06-27T06:46:19.231Z,1000.90
2018-06-27T06:47:19.336Z,1000.91
2018-06-27T06:48:19.452Z,1000.92
2018-06-27T06:49:19.564Z,1000.92
2018-06-27T06:50:19.667Z,1000.87
2018-06-27T06:51:19.772Z,1000.96
2018-06-27T06:52:19.878Z,1000.88
2018-06-27T06:53:19.990Z,1000.85
2018-06-27T06:54:20.104Z,1000.83
2018-06-27T06:55:20.210Z,1000.90
2018-06-27T06:56:20.323Z,1000.90
2018-06-27T06:57:20.430Z,1000.91
2018-06-27T06:58:20.535Z,1000.90
2018-06-27T06:59:20.632Z,1000.89
2018-06-27T07:00:20.739Z,1000.90
2018-06-27T07:01:20.846Z,1000.85
2018-06-27T07:02:20.985Z,1000.84
2018-06-27T07:03:21.081Z,1000.87
2018-06-27T07:04:21.195Z,1000.91
2018-06-27T07:05:21.301Z,1000.88
2018-06-27T07:06:21.395Z,1000.84
2018-06-27T07:07:21.507Z,1000.82
2018-06-27T07:08:21.670Z,1000.87
2018-06-27T07:09:21.762Z,1000.84
2018-06-27T07:10:21.879Z,1000.80
2018-06-27T07:11:22.094Z,1000.77
2018-06-27T07:12:22.092Z,1000.86
2018-06-27T07:13:22.180Z,1000.89
2018-06-27T07:14:22.294Z,1000.90
2018-06-27T07:15:22.391Z,1000.81
2018-06-27T07:16:22.495Z,1000.83
2018-06-27T07:17:22.617Z,1000.89
2018-06-27T07:18:22.719Z,1000.92
2018-06-27T07:19:22.821Z,1000.90
2018-06-27T07:20:22.911Z,1000.92
2018-06-27T07:21:23.005Z,1000.87
2018-06-27T07:22:23.140Z,1000.86
2018-06-27T07:23:23.238Z,1000.80
2018-06-27T07:24:23.346Z,1000.84
2018-06-27T07:25:23.468Z,1000.80
2018-06-27T07:26:23.566Z,1000.86
2018-06-27T07:27:23.700Z,1000.89
2018-06-27T07:28:23.840Z,1000.91
2018-06-27T07:29:23.906Z,1000.87
2018-06-27T07:30:24.023Z,1000.86
2018-06-27T07:31:24.123Z,1000.85
2018-06-27T07:32:24.241Z,1000.85
2018-06-27T07:33:24.362Z,1000.81
2018-06-27T07:34:24.461Z,1000.80
2018-06-27T07:35:24.567Z,1000.81
2018-06-27T07:36:24.675Z,1000.82
2018-06-27T07:37:24.804Z,1000.80
2018-06-27T07:38:24.896Z,1000.80
2018-06-27T07:39:24.997Z,1000.77
2018-06-27T07:40:25.141Z,1000.75
2018-06-27T07:41:25.245Z,1000.77
2018-06-27T07:42:25.349Z,1000.74
2018-06-27T07:43:25.452Z,1000.74
2018-06-27T07:44:25.606Z,1000.72
2018-06-27T07:45:25.646Z,1000.71
2018-06-27T07:46:25.745Z,1000.69
2018-06-27T07:47:25.840Z,1000.72
2018-06-27T07:48:25.935Z,1000.64
2018-06-27T07:49:26.034Z,1000.65
2018-06-27T07:50:26.139Z,1000.62
2018-06-27T07:51:26.239Z,1000.63
2018-06-27T07:52:26.339Z,1000.60
2018-06-27T07:53:26.443Z,1000.61
2018-06-27T07:54:26.548Z,1000.61
2018-06-27T07:55:26.658Z,1000.66
2018-06-27T07:56:26.765Z,1000.62
2018-06-27T07:57:26.875Z,1000.60
2018-06-27T07:58:26.987Z,1000.61
2018-06-27T07:59:27.092Z,1000.61
2018-06-27T08:00:27.197Z,1000.60
2018-06-27T08:01:27.299Z,1000.56
2018-06-27T08:02:27.409Z,1000.62
2018-06-27T08:03:27.516Z,1000.60
2018-06-27T08:04:27.630Z,1000.65
2018-06-27T08:05:27.733Z,1000.60
2018-06-27T08:06:27.854Z,1000.67
2018-06-27T08:07:27.966Z,1000.64
2018-06-27T08:08:28.062Z,1000.63
2018-06-27T08:09:28.153Z,1000.56
2018-06-27T08:10:28.259Z,1000.57
2018-06-27T08:11:28.366Z,1000.57
2018-06-27T08:12:28.522Z,1000.59
2018-06-27T08:13:28.577Z,1000.61
2018-06-27T08:14:28.673Z,1000.60
2018-06-27T08:15:28.783Z,1000.67
2018-06-27T08:16:28.882Z,1000.57
2018-06-27T08:17:29.021Z,1000.61
2018-06-27T08:18:29.107Z,1000.61
2018-06-27T08:19:29.201Z,1000.61
2018-06-27T08:20:29.322Z,1000.67
2018-06-27T08:21:29.438Z,1000.60
2018-06-27T08:22:29.556Z,1000.62
2018-06-27T08:23:29.670Z,1000.65
2018-06-27T08:24:29.769Z,1000.65
2018-06-27T08:25:29.859Z,1000.60
2018-06-27T08:26:29.967Z,1000.57
2018-06-27T08:27:30.073Z,1000.56
2018-06-27T08:28:30.199Z,1000.55
2018-06-27T08:29:30.298Z,1000.66
2018-06-27T08:30:30.410Z,1000.62
2018-06-27T08:31:30.514Z,1000.60
2018-06-27T08:32:30.627Z,1000.66
2018-06-27T08:33:30.717Z,1000.61
2018-06-27T08:34:30.815Z,1000.59
2018-06-27T08:35:30.911Z,1000.59
2018-06-27T08:36:31.035Z,1000.62
2018-06-27T08:37:31.147Z,1000.64
2018-06-27T08:38:31.249Z,1000.68
2018-06-27T08:39:31.370Z,1000.68
2018-06-27T08:40:31.459Z,1000.68
2018-06-27T08:41:31.563Z,1000.69
2018-06-27T08:42:31.657Z,1000.66
2018-06-27T08:43:31.745Z,1000.71
2018-06-27T08:44:31.890Z,1000.61
2018-06-27T08:45:31.959Z,1000.64
2018-06-27T08:46:32.056Z,1000.68
2018-06-27T08:47:32.170Z,1000.65
2018-06-27T08:48:32.272Z,1000.73
2018-06-27T08:49:32.369Z,1000.69
2018-06-27T08:50:32.458Z,1000.63
2018-06-27T08:51:32.579Z,1000.67
2018-06-27T08:52:32.672Z,1000.66
2018-06-27T08:53:32.777Z,1000.60
2018-06-27T08:54:32.889Z,1000.66
2018-06-27T08:55:32.985Z,1000.59
2018-06-27T08:56:33.090Z,1000.68
2018-06-27T08:57:33.194Z,1000.65
2018-06-27T08:58:33.296Z,1000.64
2018-06-27T08:59:33.400Z,1000.64
2018-06-27T09:00:33.501Z,1000.74
2018-06-27T09:01:33.606Z,1000.65
2018-06-27T09:02:33.709Z,1000.63
2018-06-27T09:03:33.816Z,1000.65
2018-06-27T09:04:33.939Z,1000.68
2018-06-27T09:05:34.041Z,1000.71
2018-06-27T09:06:34.144Z,1000.68
2018-06-27T09:07:34.305Z,1000.65
2018-06-27T09:08:34.348Z,1000.61
2018-06-27T09:09:34.449Z,1000.57
2018-06-27T09:10:34.547Z,1000.60
2018-06-27T09:11:34.643Z,1000.64
2018-06-27T09:12:34.741Z,1000.65
2018-06-27T09:13:34.844Z,1000.65
2018-06-27T09:14:34.946Z,1000.58
2018-06-27T09:15:35.048Z,1000.56
2018-06-27T09:16:35.156Z,1000.56
2018-06-27T09:17:35.251Z,1000.56
2018-06-27T09:18:35.427Z,1000.59
2018-06-27T09:19:35.468Z,1000.59
2018-06-27T09:20:35.572Z,1000.74
2018-06-27T09:21:35.677Z,1000.62
2018-06-27T09:22:35.781Z,1000.68
2018-06-27T09:23:35.883Z,1000.63
2018-06-27T09:24:35.986Z,1000.62
2018-06-27T09:25:36.089Z,1000.66
2018-06-27T09:26:36.196Z,1000.60
2018-06-27T09:27:36.296Z,1000.64
2018-06-27T09:28:36.402Z,1000.55
2018-06-27T09:29:36.510Z,1000.68
2018-06-27T09:30:36.613Z,1000.57
2018-06-27T09:31:36.719Z,1000.56
2018-06-27T09:32:36.824Z,1000.59
2018-06-27T09:33:36.916Z,1000.61
2018-06-27T09:34:37.016Z,1000.53
2018-06-27T09:35:37.121Z,1000.51
2018-06-27T09:36:37.223Z,1000.54
2018-06-27T09:37:37.327Z,1000.60
2018-06-27T09:38:37.429Z,1000.64
2018-06-27T09:39:37.534Z,1000.48
2018-06-27T09:40:37.764Z,1000.54
2018-06-27T09:41:37.784Z,1000.50
2018-06-27T09:42:37.889Z,1000.53
2018-06-27T09:43:37.992Z,1000.53
2018-06-27T09:44:38.094Z,1000.45
2018-06-27T09:45:38.198Z,1000.48
2018-06-27T09:46:38.301Z,1000.46
2018-06-27T09:47:38.412Z,1000.38
2018-06-27T09:48:38.514Z,1000.50
2018-06-27T09:49:38.616Z,1000.49
2018-06-27T09:50:38.723Z,1000.38
2018-06-27T09:51:38.826Z,1000.43
2018-06-27T09:52:38.930Z,1000.51
2018-06-27T09:53:39.034Z,1000.44
2018-06-27T09:54:39.137Z,1000.48
2018-06-27T09:55:39.243Z,1000.41
2018-06-27T09:56:39.371Z,1000.38
2018-06-27T09:57:39.448Z,1000.38
2018-06-27T09:58:39.552Z,1000.34
2018-06-27T09:59:39.654Z,1000.44
2018-06-27T10:00:39.759Z,1000.39
2018-06-27T10:01:39.861Z,1000.38
2018-06-27T10:02:39.959Z,1000.41
2018-06-27T10:03:40.062Z,1000.36
2018-06-27T10:04:40.164Z,1000.34
2018-06-27T10:05:40.265Z,1000.34
2018-06-27T10:06:40.367Z,1000.41
2018-06-27T10:07:40.476Z,1000.38
2018-06-27T10:08:40.576Z,1000.37
2018-06-27T10:09:40.678Z,1000.34
2018-06-27T10:10:40.784Z,1000.36
2018-06-27T10:11:40.889Z,1000.23
2018-06-27T10:12:40.995Z,1000.15
2018-06-27T10:13:41.097Z,1000.15
2018-06-27T10:14:41.202Z,1000.33
2018-06-27T10:15:41.307Z,1000.29
2018-06-27T10:16:41.400Z,1000.34
2018-06-27T10:17:41.512Z,1000.22
2018-06-27T10:18:41.617Z,1000.28
2018-06-27T10:19:41.721Z,1000.34
2018-06-27T10:20:41.828Z,1000.28
2018-06-27T10:21:41.930Z,1000.20
2018-06-27T10:22:42.085Z,1000.15
2018-06-27T10:23:42.134Z,1000.16
2018-06-27T10:24:42.237Z,1000.16
2018-06-27T10:25:42.341Z,1000.17
2018-06-27T10:26:42.449Z,1000.15
2018-06-27T10:27:42.551Z,1000.21
2018-06-27T10:28:42.654Z,1000.19
2018-06-27T10:29:42.763Z,1000.20
2018-06-27T10:30:42.897Z,1000.25
2018-06-27T10:31:42.969Z,1000.16
2018-06-27T10:32:43.071Z,1000.24
2018-06-27T10:33:43.177Z,1000.23
2018-06-27T10:34:43.280Z,1000.22
2018-06-27T10:35:43.403Z,1000.17
2018-06-27T10:36:43.490Z,1000.18
2018-06-27T10:37:43.659Z,1000.16
2018-06-27T10:38:43.726Z,1000.17
2018-06-27T10:39:43.829Z,1000.16
2018-06-27T10:40:43.939Z,1000.13
2018-06-27T10:41:44.050Z,1000.20
2018-06-27T10:42:44.150Z,1000.29
2018-06-27T10:43:44.254Z,1000.19
2018-06-27T10:44:44.363Z,1000.18
2018-06-27T10:45:44.455Z,1000.24
2018-06-27T10:46:44.553Z,1000.26
2018-06-27T10:47:44.665Z,1000.25
2018-06-27T10:48:44.771Z,1000.27
2018-06-27T10:49:44.874Z,1000.29
2018-06-27T10:50:44.978Z,1000.32
2018-06-27T10:51:45.085Z,1000.27
2018-06-27T10:52:45.193Z,1000.27
2018-06-27T10:53:45.298Z,1000.16
2018-06-27T10:54:45.399Z,1000.27
2018-06-27T10:55:45.503Z,1000.23
2018-06-27T10:56:45.610Z,1000.29
2018-06-27T10:57:45.715Z,1000.17
2018-06-27T10:58:45.819Z,1000.29
2018-06-27T10:59:45.935Z,1000.21
2018-06-27T11:00:46.043Z,1000.21
2018-06-27T11:01:46.146Z,1000.27
2018-06-27T11:02:46.252Z,1000.32
2018-06-27T11:03:46.356Z,1000.29
2018-06-27T11:04:46.460Z,1000.36
2018-06-27T11:05:46.569Z,1000.32
2018-06-27T11:06:46.671Z,1000.32
2018-06-27T11:07:46.770Z,1000.31
2018-06-27T11:08:46.874Z,1000.26
2018-06-27T11:09:46.978Z,1000.29
2018-06-27T11:10:47.082Z,1000.31
2018-06-27T11:11:47.191Z,1000.41
2018-06-27T11:12:47.297Z,1000.32
2018-06-27T11:13:47.404Z,1000.40
2018-06-27T11:14:47.508Z,1000.39
2018-06-27T11:15:47.616Z,1000.24
2018-06-27T11:16:47.723Z,1000.31
2018-06-27T11:17:47.825Z,1000.27
2018-06-27T11:18:47.930Z,1000.30
2018-06-27T11:19:48.047Z,1000.24
2018-06-27T11:20:48.150Z,1000.20
2018-06-27T11:21:48.252Z,1000.21
2018-06-27T11:22:48.360Z,1000.19
2018-06-27T11:23:48.462Z,1000.07
2018-06-27T11:24:48.563Z,1000.20
2018-06-27T11:25:48.663Z,1000.22
2018-06-27T11:26:48.806Z,1000.14
2018-06-27T11:27:48.866Z,1000.26
2018-06-27T11:28:48.976Z,1000.24
2018-06-27T11:29:49.084Z,1000.15
2018-06-27T11:30:49.180Z,1000.26
2018-06-27T11:31:49.283Z,1000.19
2018-06-27T11:32:49.476Z,1000.19
2018-06-27T11:33:49.493Z,1000.11
2018-06-27T11:34:49.589Z,1000.18
2018-06-27T11:35:49.690Z,1000.14
2018-06-27T11:36:49.809Z,1000.14
2018-06-27T11:37:49.919Z,1000.18
2018-06-27T11:38:50.107Z,1000.11
2018-06-27T11:39:50.137Z,1000.08
2018-06-27T11:40:50.238Z,1000.10
2018-06-27T11:41:50.343Z,1000.12
2018-06-27T11:42:50.446Z,1000.07
2018-06-27T11:43:50.627Z,1000.13
2018-06-27T11:44:50.621Z,1000.03
2018-06-27T11:45:50.725Z,1000.15
2018-06-27T11:46:50.851Z,1000.08
2018-06-27T11:47:50.960Z,1000.05
2018-06-27T11:48:51.067Z,1000.05
2018-06-27T11:49:51.169Z,1000.11
2018-06-27T11:50:51.301Z,1000.13
2018-06-27T11:51:51.424Z,1000.05
2018-06-27T11:52:51.539Z,1000.14
2018-06-27T11:53:51.661Z,1000.15
2018-06-27T11:54:51.772Z,1000.07
2018-06-27T11:55:51.876Z,1000.08
2018-06-27T11:56:51.981Z,1000.14
2018-06-27T11:57:52.092Z,1000.16
2018-06-27T11:58:52.197Z,1000.21
2018-06-27T11:59:52.316Z,1000.11
2018-06-27T12:00:52.414Z,1000.20
2018-06-27T12:01:52.525Z,1000.29
2018-06-27T12:02:52.619Z,1000.20
2018-06-27T12:03:52.721Z,1000.04
2018-06-27T12:04:52.828Z,1000.10
2018-06-27T12:05:52.949Z,1000.09
2018-06-27T12:06:53.041Z,1000.08